Terminal Aerodrome Forecast
Issued by NWS

Home | Current Version | Previous Version | Text Only | Print | Product List | Glossary On
Versions: 1 2 3 4 5 6 7 8 9 10 11 12 13 14 15 16 17 18 19 20 21 22 23 24 25 26
000
FTUS41 KBTV 240521
TAFMSS
TAF
KMSS 240521Z 2406/2506 06015G23KT P6SM VCSH OVC050
     FM240800 06016G23KT 4SM -SNPL BR OVC040
     FM241000 06015G25KT 4SM -SNPL BR OVC020
     FM241400 05013G19KT 4SM -PL BR OVC008
     FM241600 05012KT 1SM -SN BR OVC008=

USA.gov is the U.S. government's official web portal to all federal, state and local government web resources and services.